International Virtual Aviation Organisation

Russian Federation and Kazakhstan MCD

 

Карточка аэропорта UNAA

Внимание!
Информация на этой странице в стадии наполнения.
Если вы не увидели какой-то информации, или заметили неточность - пожалуйста сообщите нам!
Спасибо!
Команда RU-STAFF
Название аэропортаАбакан
Название аэропорта (англ.)Abakan
Превышение830 ft. (253 m.)
Координаты53°44.4', 91°23.118'
Высота перехода1400m
Эшелон переходаQFE>=724mm:FL070; QFE<724:FL080
Коды ответчика5430-5437
Зона ОрВДКрасноярск РПИ (UNKL)
Данные METARUNAA 212000Z 20006MPS CAVOK 08/05 Q1004 R20/290055 NOSIG RMK QFE731
Проноз погоды (TAF)UNAA 211955Z 2121/2221 20003G10MPS 9999 SCT025CB TEMPO 2200/2203 5000 -SHRA BECMG 2203/2205 26006G13MPS BECMG 2212/2214 32003G08MPS
NOTAMshow/hide NOTAM
AWOS   TABLE

Информация о ВПП

ВПП Длина ВПП (м.) Покрытие Курс ВПП Частота ILS
02R3250Асфальтобетон21110.3
20L3250Асфальтобетон201109.9

Диспетчерские позиции

Позывной Наименование органа УВД Частота
UNAA_R_APPАбакан-Круг134.3
UNAA_TWRАбакан-Старт122.0



Спутниковое изображение